Time;durP1;ratioP1;P1;durP2;ratioP2;P2;SDS_P1;SDS_P2;PMS_P1;PMS_P2;Temp;Humidity;BMP_temperature;BMP_pressure;BME280_temperature;BME280_humidity;BME280_pressure;Samples;Min_cycle;Max_cycle;Signal;HPM_P1;HPM_P2
2023/12/13 00:01:13;;;;;;;5.73;1.30;;;;;;;;;;4988847;28;20481;-93
2023/12/13 00:03:38;;;;;;;7.60;1.53;;;;;;;;;;5004859;28;20054;-92
2023/12/13 00:06:04;;;;;;;6.10;1.23;;;;;;;;;;5016407;28;20045;-93
2023/12/13 00:08:30;;;;;;;6.35;1.50;;;;;;;;;;5015935;28;20030;-94
2023/12/13 00:10:58;;;;;;;4.77;1.30;;;;;;;;;;5016558;28;20006;-95
2023/12/13 00:13:25;;;;;;;9.55;1.50;;;;;;;;;;5076005;22;20101;-96
2023/12/13 00:15:50;;;;;;;4.00;1.63;;;;;;;;;;5055759;28;20393;-94
2023/12/13 00:18:15;;;;;;;7.80;1.50;;;;;;;;;;5052644;28;20021;-96
2023/12/13 00:20:41;;;;;;;5.37;1.40;;;;;;;;;;5012211;28;20078;-96
2023/12/13 00:23:06;;;;;;;6.70;1.40;;;;;;;;;;5008839;28;20037;-96
2023/12/13 00:25:32;;;;;;;7.13;1.40;;;;;;;;;;5004938;28;20056;-96
2023/12/13 00:27:57;;;;;;;9.10;1.58;;;;;;;;;;5016852;28;20389;-96
2023/12/13 00:30:22;;;;;;;6.17;1.60;;;;;;;;;;5019431;28;20084;-96
2023/12/13 00:32:47;;;;;;;7.47;1.60;;;;;;;;;;5014433;28;20397;-96
2023/12/13 00:35:13;;;;;;;8.40;1.70;;;;;;;;;;4998676;28;20442;-96
2023/12/13 00:37:38;;;;;;;4.47;1.53;;;;;;;;;;4997864;28;20031;-96
2023/12/13 00:40:05;;;;;;;8.13;1.67;;;;;;;;;;5012826;28;20010;-96
2023/12/13 00:42:31;;;;;;;4.30;1.40;;;;;;;;;;5016167;28;20017;-96
2023/12/13 00:44:56;;;;;;;8.03;1.43;;;;;;;;;;5017458;28;20026;-95
2023/12/13 00:47:21;;;;;;;5.80;1.83;;;;;;;;;;5017725;28;20480;-95
2023/12/13 00:49:46;;;;;;;5.20;1.50;;;;;;;;;;5010375;28;20026;-96
2023/12/13 00:52:11;;;;;;;5.70;1.67;;;;;;;;;;5007676;28;20029;-96
2023/12/13 00:54:37;;;;;;;4.80;1.80;;;;;;;;;;5011569;28;20034;-96
2023/12/13 00:57:02;;;;;;;9.37;1.80;;;;;;;;;;5021876;28;20018;-95
2023/12/13 00:59:27;;;;;;;11.45;2.08;;;;;;;;;;5020386;28;20057;-96
2023/12/13 01:01:53;;;;;;;9.37;1.73;;;;;;;;;;5025533;28;20026;-96
2023/12/13 01:04:18;;;;;;;7.50;2.10;;;;;;;;;;5021839;28;20018;-96
2023/12/13 01:06:43;;;;;;;7.60;2.00;;;;;;;;;;5023809;28;20033;-95
2023/12/13 01:09:08;;;;;;;5.00;1.80;;;;;;;;;;5032096;28;20484;-96
2023/12/13 01:11:33;;;;;;;7.53;1.87;;;;;;;;;;5019785;28;20022;-96
2023/12/13 01:13:59;;;;;;;7.07;2.40;;;;;;;;;;5019374;28;20026;-96
2023/12/13 01:16:24;;;;;;;5.33;1.90;;;;;;;;;;5001348;28;20049;-96
2023/12/13 01:18:49;;;;;;;4.97;1.70;;;;;;;;;;5024583;28;20093;-96
2023/12/13 01:21:15;;;;;;;6.27;2.17;;;;;;;;;;5015974;28;20030;-96
2023/12/13 01:23:40;;;;;;;10.18;2.15;;;;;;;;;;5015968;28;20040;-95
2023/12/13 01:26:05;;;;;;;7.40;2.00;;;;;;;;;;5012299;28;20026;-96
2023/12/13 01:28:31;;;;;;;13.77;2.50;;;;;;;;;;5018109;28;20030;-96
2023/12/13 01:30:57;;;;;;;5.30;1.97;;;;;;;;;;5015983;28;20068;-96
2023/12/13 01:33:23;;;;;;;5.63;2.03;;;;;;;;;;5006544;28;20029;-95
2023/12/13 01:35:48;;;;;;;9.87;2.60;;;;;;;;;;5001317;28;20105;-95
2023/12/13 01:38:13;;;;;;;12.00;2.77;;;;;;;;;;5016970;28;20018;-96
2023/12/13 01:40:48;;;;;;;6.17;2.00;;;;;;;;;;5007365;28;20470;-96
2023/12/13 01:43:19;;;;;;;6.35;2.20;;;;;;;;;;5015551;28;20504;-95
2023/12/13 01:45:46;;;;;;;17.58;2.88;;;;;;;;;;5017503;28;20386;-96
2023/12/13 01:48:11;;;;;;;9.10;2.40;;;;;;;;;;5015460;28;20184;-95
2023/12/13 01:50:36;;;;;;;6.40;2.10;;;;;;;;;;4996986;28;20042;-96
2023/12/13 01:53:01;;;;;;;10.33;2.17;;;;;;;;;;5009768;28;20057;-96
2023/12/13 01:55:27;;;;;;;7.67;2.30;;;;;;;;;;5007672;28;20536;-96
2023/12/13 01:57:52;;;;;;;9.27;2.10;;;;;;;;;;5008001;28;20084;-95
2023/12/13 02:00:17;;;;;;;13.30;2.50;;;;;;;;;;5008152;28;20065;-96
2023/12/13 02:02:44;;;;;;;13.23;2.63;;;;;;;;;;5017878;28;20026;-96
2023/12/13 02:05:10;;;;;;;9.55;2.97;;;;;;;;;;5017593;28;20017;-96
2023/12/13 02:07:36;;;;;;;11.90;2.88;;;;;;;;;;5017850;28;20022;-96
2023/12/13 02:10:01;;;;;;;9.90;3.13;;;;;;;;;;5017776;28;20033;-96
2023/12/13 02:12:27;;;;;;;7.53;2.90;;;;;;;;;;5007446;28;20097;-96
2023/12/13 02:14:52;;;;;;;12.00;2.80;;;;;;;;;;5007835;28;20818;-95
2023/12/13 02:17:28;;;;;;;9.77;2.97;;;;;;;;;;5014764;28;20026;-96
2023/12/13 02:19:53;;;;;;;21.95;3.90;;;;;;;;;;5002956;28;20022;-96
2023/12/13 02:22:18;;;;;;;14.27;3.20;;;;;;;;;;5001254;28;20094;-96
2023/12/13 02:24:45;;;;;;;10.47;2.83;;;;;;;;;;5016834;28;20037;-96
2023/12/13 02:27:10;;;;;;;11.77;3.05;;;;;;;;;;5024891;28;20106;-96
2023/12/13 02:29:36;;;;;;;14.07;3.10;;;;;;;;;;5023664;28;20021;-96
2023/12/13 02:32:01;;;;;;;10.57;3.47;;;;;;;;;;5013955;28;20046;-96
2023/12/13 02:34:26;;;;;;;16.03;2.90;;;;;;;;;;5003942;28;20019;-95
2023/12/13 02:36:52;;;;;;;9.97;2.70;;;;;;;;;;5010684;28;20269;-94
2023/12/13 02:39:18;;;;;;;14.13;3.10;;;;;;;;;;5004710;28;20485;-95
2023/12/13 02:41:43;;;;;;;17.92;3.13;;;;;;;;;;5005212;28;20175;-94
2023/12/13 02:44:08;;;;;;;12.27;3.30;;;;;;;;;;4993528;28;20068;-95
2023/12/13 02:46:33;;;;;;;13.10;3.43;;;;;;;;;;5010209;28;20081;-96
2023/12/13 02:48:59;;;;;;;16.47;5.03;;;;;;;;;;5009974;28;20041;-96
2023/12/13 02:51:26;;;;;;;14.33;3.40;;;;;;;;;;5009635;28;20030;-95
2023/12/13 02:53:51;;;;;;;12.85;3.30;;;;;;;;;;5005890;28;20021;-96
2023/12/13 02:56:16;;;;;;;16.17;3.30;;;;;;;;;;5009250;28;20086;-96
2023/12/13 02:58:41;;;;;;;13.87;3.10;;;;;;;;;;5005347;28;20022;-96
2023/12/13 03:01:07;;;;;;;16.00;3.47;;;;;;;;;;5016945;28;20025;-96
2023/12/13 03:03:32;;;;;;;17.27;4.00;;;;;;;;;;5007840;28;20284;-96
2023/12/13 03:05:57;;;;;;;15.83;3.47;;;;;;;;;;5008708;28;20026;-96
2023/12/13 03:08:23;;;;;;;16.27;3.20;;;;;;;;;;5002850;28;20033;-96
2023/12/13 03:10:49;;;;;;;14.10;3.45;;;;;;;;;;5011135;28;20022;-96
2023/12/13 03:13:14;;;;;;;15.63;3.37;;;;;;;;;;5021266;28;20116;-96
2023/12/13 03:15:39;;;;;;;12.27;3.13;;;;;;;;;;5014770;28;20547;-96
2023/12/13 03:18:04;;;;;;;17.07;3.40;;;;;;;;;;5003406;28;20447;-96
2023/12/13 03:20:30;;;;;;;17.87;3.37;;;;;;;;;;5012985;28;20018;-96
2023/12/13 03:22:55;;;;;;;20.48;3.70;;;;;;;;;;5022165;28;20022;-96
2023/12/13 03:25:23;;;;;;;15.43;2.93;;;;;;;;;;5014688;28;20630;-96
2023/12/13 03:27:48;;;;;;;16.97;3.10;;;;;;;;;;5018590;28;20524;-95
2023/12/13 03:30:13;;;;;;;16.73;3.03;;;;;;;;;;5020721;28;20272;-95
2023/12/13 03:32:40;;;;;;;19.53;3.13;;;;;;;;;;5019554;28;20416;-96
2023/12/13 03:35:06;;;;;;;17.98;3.35;;;;;;;;;;5020564;28;20096;-96
2023/12/13 03:37:31;;;;;;;12.57;3.33;;;;;;;;;;5006884;28;20089;-96
2023/12/13 03:39:57;;;;;;;17.52;3.67;;;;;;;;;;5009111;28;20018;-96
2023/12/13 03:42:22;;;;;;;22.37;3.10;;;;;;;;;;5008068;28;20018;-94
2023/12/13 03:44:47;;;;;;;16.43;3.90;;;;;;;;;;5020202;28;20034;-95
2023/12/13 03:47:12;;;;;;;26.17;4.43;;;;;;;;;;5023465;28;20018;-95
2023/12/13 03:49:37;;;;;;;13.27;3.67;;;;;;;;;;5021788;28;20490;-96
2023/12/13 03:52:03;;;;;;;19.37;3.63;;;;;;;;;;5008268;28;20118;-96
2023/12/13 03:54:28;;;;;;;16.23;3.63;;;;;;;;;;5008154;28;20030;-96
2023/12/13 03:56:55;;;;;;;24.00;3.57;;;;;;;;;;5006779;28;20022;-96
2023/12/13 03:59:37;;;;;;;19.02;3.75;;;;;;;;;;5018193;28;20090;-96
2023/12/13 04:02:11;;;;;;;23.70;3.88;;;;;;;;;;5022787;28;20022;-95
2023/12/13 04:04:36;;;;;;;22.20;4.40;;;;;;;;;;5031908;28;20018;-95
2023/12/13 04:07:05;;;;;;;18.93;3.73;;;;;;;;;;5022179;28;20045;-96
2023/12/13 04:09:31;;;;;;;19.52;4.10;;;;;;;;;;5023968;28;20030;-94
2023/12/13 04:11:57;;;;;;;19.83;4.37;;;;;;;;;;5016428;28;20129;-95
2023/12/13 04:14:22;;;;;;;15.05;3.90;;;;;;;;;;5000565;28;20390;-94
2023/12/13 04:16:47;;;;;;;19.53;3.87;;;;;;;;;;5011299;28;20029;-95
2023/12/13 04:19:13;;;;;;;20.85;4.32;;;;;;;;;;5019226;28;20049;-93
2023/12/13 04:21:38;;;;;;;22.00;3.97;;;;;;;;;;5018563;28;20537;-94
2023/12/13 04:24:04;;;;;;;26.83;4.00;;;;;;;;;;5016696;28;20026;-94
2023/12/13 04:26:29;;;;;;;22.57;4.07;;;;;;;;;;5016909;28;20033;-94
2023/12/13 04:28:54;;;;;;;20.70;3.70;;;;;;;;;;5019370;28;20026;-93
2023/12/13 04:31:19;;;;;;;16.83;3.70;;;;;;;;;;5017702;28;20171;-94
2023/12/13 04:33:45;;;;;;;31.53;5.70;;;;;;;;;;5016876;28;20022;-93
2023/12/13 04:36:10;;;;;;;19.33;4.33;;;;;;;;;;4997872;28;20438;-93
2023/12/13 04:38:35;;;;;;;22.20;4.60;;;;;;;;;;5015109;28;20026;-94
2023/12/13 04:41:01;;;;;;;30.50;5.73;;;;;;;;;;5015180;28;20029;-94
2023/12/13 04:43:26;;;;;;;29.77;4.63;;;;;;;;;;5016999;28;20026;-94
2023/12/13 04:45:51;;;;;;;18.23;4.13;;;;;;;;;;5019192;28;20026;-94
2023/12/13 04:48:16;;;;;;;31.17;4.67;;;;;;;;;;5017829;28;20053;-93
2023/12/13 04:50:42;;;;;;;21.33;3.93;;;;;;;;;;5015889;28;20057;-94
2023/12/13 04:53:08;;;;;;;30.05;4.20;;;;;;;;;;5016966;28;20171;-93
2023/12/13 04:55:33;;;;;;;21.93;4.40;;;;;;;;;;5011252;28;20029;-93
2023/12/13 04:57:58;;;;;;;13.83;3.83;;;;;;;;;;5014219;28;20485;-95
2023/12/13 05:00:23;;;;;;;24.00;5.10;;;;;;;;;;5013858;28;20029;-96
2023/12/13 05:02:48;;;;;;;22.50;4.33;;;;;;;;;;5037084;28;20021;-96
2023/12/13 05:05:14;;;;;;;28.70;4.63;;;;;;;;;;5018504;28;20022;-95
2023/12/13 05:07:39;;;;;;;20.97;4.53;;;;;;;;;;5013954;28;20049;-95
2023/12/13 05:10:06;;;;;;;23.33;4.57;;;;;;;;;;5033306;28;20037;-95
2023/12/13 05:12:32;;;;;;;21.02;3.97;;;;;;;;;;5021792;28;20029;-96
2023/12/13 05:14:57;;;;;;;24.23;4.70;;;;;;;;;;5020839;28;20473;-96
2023/12/13 05:17:22;;;;;;;18.80;4.10;;;;;;;;;;5011289;28;20026;-96
2023/12/13 05:19:47;;;;;;;24.93;3.87;;;;;;;;;;5009664;28;20020;-96
2023/12/13 05:22:12;;;;;;;25.73;3.67;;;;;;;;;;5022133;28;20129;-94
2023/12/13 05:24:37;;;;;;;21.97;3.93;;;;;;;;;;5032634;28;20022;-96
2023/12/13 05:37:21;;;;;;;23.87;4.13;;;;;;;;;;5733152;23;20057;-96
2023/12/13 05:39:47;;;;;;;20.83;4.00;;;;;;;;;;5026386;28;20280;-96
2023/12/13 05:42:12;;;;;;;26.63;5.10;;;;;;;;;;5020652;28;20022;-96
2023/12/13 05:44:38;;;;;;;21.90;4.57;;;;;;;;;;5028521;23;20038;-89
2023/12/13 05:47:03;;;;;;;28.50;4.53;;;;;;;;;;5007223;28;20393;-89
2023/12/13 05:49:28;;;;;;;21.30;4.80;;;;;;;;;;4998969;28;20072;-90
2023/12/13 05:51:53;;;;;;;28.30;5.70;;;;;;;;;;4988278;28;20117;-92
2023/12/13 05:54:19;;;;;;;25.73;4.80;;;;;;;;;;4978763;28;20442;-90
2023/12/13 05:56:45;;;;;;;25.20;4.53;;;;;;;;;;4990954;28;20469;-91
2023/12/13 05:59:10;;;;;;;27.93;3.90;;;;;;;;;;4987746;28;20093;-90
2023/12/13 06:01:35;;;;;;;26.45;3.92;;;;;;;;;;4985467;28;20042;-89
2023/12/13 06:04:02;;;;;;;21.33;4.13;;;;;;;;;;4992022;28;20014;-88
2023/12/13 06:06:27;;;;;;;22.02;4.15;;;;;;;;;;4991303;28;20445;-90
2023/12/13 06:08:52;;;;;;;31.37;4.33;;;;;;;;;;4991426;28;20034;-90
2023/12/13 06:11:18;;;;;;;19.07;3.87;;;;;;;;;;4980890;28;20019;-90
2023/12/13 06:13:43;;;;;;;28.13;4.50;;;;;;;;;;4982575;28;20113;-90
2023/12/13 06:16:12;;;;;;;21.33;4.30;;;;;;;;;;4984092;28;20017;-89
2023/12/13 06:18:37;;;;;;;26.83;4.75;;;;;;;;;;4977005;28;20026;-88
2023/12/13 06:21:02;;;;;;;19.77;4.53;;;;;;;;;;4974593;28;20083;-88
2023/12/13 06:23:28;;;;;;;26.90;4.37;;;;;;;;;;4976866;28;20034;-89
2023/12/13 06:25:53;;;;;;;26.97;4.63;;;;;;;;;;4982352;28;20100;-88
2023/12/13 06:28:18;;;;;;;22.93;4.60;;;;;;;;;;4981835;28;20034;-88
2023/12/13 06:30:43;;;;;;;31.13;5.60;;;;;;;;;;4990135;28;20106;-91
2023/12/13 06:33:08;;;;;;;25.90;5.17;;;;;;;;;;4985911;28;20029;-91
2023/12/13 06:35:33;;;;;;;21.63;4.70;;;;;;;;;;4983838;28;20030;-92
2023/12/13 06:37:59;;;;;;;28.07;5.20;;;;;;;;;;4989432;28;20018;-91
2023/12/13 06:40:24;;;;;;;25.47;4.57;;;;;;;;;;4979547;28;20234;-91
2023/12/13 06:42:49;;;;;;;19.50;4.53;;;;;;;;;;4985748;28;20030;-92
2023/12/13 06:45:15;;;;;;;22.60;4.70;;;;;;;;;;4978816;28;20317;-93
2023/12/13 06:47:40;;;;;;;27.30;4.87;;;;;;;;;;4984614;28;20094;-93
2023/12/13 06:50:05;;;;;;;26.03;5.23;;;;;;;;;;4984627;28;20026;-93
2023/12/13 06:52:30;;;;;;;20.60;4.97;;;;;;;;;;4981137;28;20026;-94
2023/12/13 06:54:56;;;;;;;23.13;5.63;;;;;;;;;;4986189;28;20470;-91
2023/12/13 06:57:21;;;;;;;27.83;4.30;;;;;;;;;;4990174;28;20042;-91
2023/12/13 06:59:47;;;;;;;23.55;4.95;;;;;;;;;;4972948;28;20380;-91
2023/12/13 07:02:12;;;;;;;27.40;5.57;;;;;;;;;;4966566;28;20019;-92
2023/12/13 07:04:37;;;;;;;23.90;5.37;;;;;;;;;;4986069;28;20366;-92
2023/12/13 07:07:03;;;;;;;20.40;4.73;;;;;;;;;;4956905;28;20086;-93
2023/12/13 07:09:28;;;;;;;30.10;5.33;;;;;;;;;;4982327;28;20493;-92
2023/12/13 07:11:53;;;;;;;23.83;5.57;;;;;;;;;;4988630;28;20034;-91
2023/12/13 07:14:18;;;;;;;26.37;5.43;;;;;;;;;;4997225;28;20346;-92
2023/12/13 07:16:44;;;;;;;22.87;5.20;;;;;;;;;;4988880;28;20023;-93
2023/12/13 07:19:10;;;;;;;31.23;5.87;;;;;;;;;;4974581;28;20030;-93
2023/12/13 07:21:35;;;;;;;28.27;5.40;;;;;;;;;;4961523;28;20399;-92
2023/12/13 07:24:00;;;;;;;26.50;6.47;;;;;;;;;;4981909;28;20030;-93
2023/12/13 07:26:25;;;;;;;19.63;6.20;;;;;;;;;;4989367;28;20735;-92
2023/12/13 07:28:50;;;;;;;23.87;6.10;;;;;;;;;;4970470;28;20148;-91
2023/12/13 07:31:16;;;;;;;22.17;6.03;;;;;;;;;;4987013;28;20022;-92
2023/12/13 07:33:41;;;;;;;22.83;6.57;;;;;;;;;;4986290;28;20105;-89
2023/12/13 07:36:07;;;;;;;24.33;6.60;;;;;;;;;;4974097;28;20024;-87
2023/12/13 07:38:32;;;;;;;31.38;6.40;;;;;;;;;;4990587;28;20065;-88
2023/12/13 07:40:57;;;;;;;28.93;6.30;;;;;;;;;;4963931;28;20019;-88
2023/12/13 07:43:23;;;;;;;25.40;6.37;;;;;;;;;;4988838;28;20030;-89
2023/12/13 07:45:55;;;;;;;24.53;6.63;;;;;;;;;;4979265;28;20030;-87
2023/12/13 07:48:22;;;;;;;29.60;6.47;;;;;;;;;;4983523;28;20089;-87
2023/12/13 07:50:48;;;;;;;23.13;6.90;;;;;;;;;;4970638;28;20033;-89
2023/12/13 07:53:13;;;;;;;28.67;7.30;;;;;;;;;;4995556;28;20030;-86
2023/12/13 07:55:38;;;;;;;21.27;6.60;;;;;;;;;;4975282;28;20022;-86
2023/12/13 07:58:03;;;;;;;28.60;7.63;;;;;;;;;;4993069;28;20023;-88
2023/12/13 08:00:29;;;;;;;25.60;7.27;;;;;;;;;;4975803;28;20054;-85
2023/12/13 08:02:54;;;;;;;22.83;6.23;;;;;;;;;;4980714;28;20061;-86
2023/12/13 08:05:20;;;;;;;23.90;7.37;;;;;;;;;;4980523;28;20089;-87
2023/12/13 08:07:46;;;;;;;20.10;7.28;;;;;;;;;;4992820;28;20085;-88
2023/12/13 08:10:11;;;;;;;32.00;8.97;;;;;;;;;;4992991;28;20018;-87
2023/12/13 08:12:36;;;;;;;25.20;7.07;;;;;;;;;;4979910;28;20022;-87
2023/12/13 08:15:01;;;;;;;30.47;8.60;;;;;;;;;;4974393;28;20330;-86
2023/12/13 08:17:27;;;;;;;26.53;5.93;;;;;;;;;;4970743;28;20109;-88
2023/12/13 08:19:54;;;;;;;24.65;5.95;;;;;;;;;;4983004;28;20380;-86
2023/12/13 08:22:19;;;;;;;25.47;6.23;;;;;;;;;;4967709;28;20169;-86
2023/12/13 08:24:44;;;;;;;29.87;6.20;;;;;;;;;;4979698;28;20368;-86
2023/12/13 08:27:10;;;;;;;26.33;6.90;;;;;;;;;;4973910;28;20094;-90
2023/12/13 08:29:35;;;;;;;25.43;6.90;;;;;;;;;;4990184;28;20149;-87
2023/12/13 08:32:00;;;;;;;31.40;11.80;;;;;;;;;;4985276;28;20462;-89
2023/12/13 08:34:25;;;;;;;30.30;9.27;;;;;;;;;;5169920;23;20054;-89
2023/12/13 08:36:51;;;;;;;32.90;9.80;;;;;;;;;;4992835;28;20057;-88
2023/12/13 08:39:16;;;;;;;39.33;11.83;;;;;;;;;;4992114;28;20027;-88
2023/12/13 08:41:41;;;;;;;31.83;9.97;;;;;;;;;;4990640;28;20030;-88
2023/12/13 08:44:07;;;;;;;24.00;7.03;;;;;;;;;;4992276;28;20274;-89
2023/12/13 08:46:32;;;;;;;25.90;8.33;;;;;;;;;;4975057;28;20034;-90
2023/12/13 08:48:57;;;;;;;30.10;7.60;;;;;;;;;;4989128;28;20030;-89
2023/12/13 08:51:23;;;;;;;25.03;7.77;;;;;;;;;;4993569;28;20072;-88
2023/12/13 08:53:49;;;;;;;29.73;7.20;;;;;;;;;;4983481;28;20026;-88
2023/12/13 08:56:14;;;;;;;36.00;7.20;;;;;;;;;;4978126;28;20018;-89
2023/12/13 08:58:39;;;;;;;26.55;7.40;;;;;;;;;;4984648;28;20033;-88
2023/12/13 09:01:05;;;;;;;29.03;7.30;;;;;;;;;;4995827;28;20076;-89
2023/12/13 09:03:30;;;;;;;23.80;7.60;;;;;;;;;;4994749;28;20505;-89
2023/12/13 09:05:55;;;;;;;28.67;7.93;;;;;;;;;;4981798;28;20445;-89
2023/12/13 09:08:21;;;;;;;30.97;7.63;;;;;;;;;;4992785;28;20037;-89
2023/12/13 09:10:46;;;;;;;30.13;14.00;;;;;;;;;;4971931;28;20054;-87
2023/12/13 09:13:11;;;;;;;29.20;9.20;;;;;;;;;;4978840;28;20053;-87
2023/12/13 09:15:36;;;;;;;30.55;8.68;;;;;;;;;;4976810;28;20089;-88
2023/12/13 09:18:02;;;;;;;28.17;7.70;;;;;;;;;;4991869;28;20053;-87
2023/12/13 09:20:27;;;;;;;24.60;7.57;;;;;;;;;;4991040;28;20014;-87
2023/12/13 09:22:53;;;;;;;29.08;8.63;;;;;;;;;;4986541;28;20018;-87
2023/12/13 09:25:18;;;;;;;23.20;7.17;;;;;;;;;;4972894;28;20366;-88
2023/12/13 09:27:44;;;;;;;22.93;7.20;;;;;;;;;;4991992;28;20015;-89
2023/12/13 09:30:10;;;;;;;29.08;7.97;;;;;;;;;;4974419;28;20041;-88
2023/12/13 09:32:35;;;;;;;25.33;8.13;;;;;;;;;;4989765;28;20453;-88
2023/12/13 09:35:00;;;;;;;27.90;7.63;;;;;;;;;;4989547;28;20474;-89
2023/12/13 09:37:25;;;;;;;22.30;7.83;;;;;;;;;;4977426;28;20019;-88
2023/12/13 09:39:51;;;;;;;30.20;9.23;;;;;;;;;;4977049;28;20422;-88
2023/12/13 09:42:18;;;;;;;28.02;10.30;;;;;;;;;;4978275;28;20022;-89
2023/12/13 09:44:44;;;;;;;23.73;8.25;;;;;;;;;;4993008;28;20022;-89
2023/12/13 09:47:10;;;;;;;25.83;9.53;;;;;;;;;;4979647;28;20022;-88
2023/12/13 09:49:36;;;;;;;21.38;8.65;;;;;;;;;;4995548;28;20038;-88
2023/12/13 09:52:06;;;;;;;26.40;9.48;;;;;;;;;;4994220;28;20098;-88
2023/12/13 09:54:31;;;;;;;25.92;8.20;;;;;;;;;;4971714;28;20391;-87
2023/12/13 09:56:57;;;;;;;31.23;9.97;;;;;;;;;;4974365;28;20030;-88
2023/12/13 09:59:25;;;;;;;25.52;10.88;;;;;;;;;;4991372;28;20462;-87
2023/12/13 10:01:51;;;;;;;22.50;9.32;;;;;;;;;;4993078;28;20375;-88
2023/12/13 10:04:17;;;;;;;29.17;8.87;;;;;;;;;;4992967;28;20519;-88
2023/12/13 10:06:42;;;;;;;23.63;8.32;;;;;;;;;;4976215;28;20510;-91
2023/12/13 10:09:08;;;;;;;23.57;8.70;;;;;;;;;;4988020;28;20034;-89
2023/12/13 10:11:33;;;;;;;19.43;9.87;;;;;;;;;;4985415;28;20027;-87
2023/12/13 10:13:59;;;;;;;21.55;7.85;;;;;;;;;;4993819;28;20504;-87
2023/12/13 10:16:27;;;;;;;19.53;7.83;;;;;;;;;;4976507;28;20395;-87
2023/12/13 10:18:52;;;;;;;17.08;7.05;;;;;;;;;;4975626;28;20023;-87
2023/12/13 10:21:17;;;;;;;23.17;8.03;;;;;;;;;;4972061;28;20041;-87
2023/12/13 10:23:43;;;;;;;21.03;6.80;;;;;;;;;;4991211;28;20470;-87
2023/12/13 10:26:09;;;;;;;18.65;6.60;;;;;;;;;;4992516;28;20098;-86
2023/12/13 10:28:35;;;;;;;23.30;7.50;;;;;;;;;;4991031;28;20035;-87
2023/12/13 10:31:00;;;;;;;18.90;6.70;;;;;;;;;;4990770;28;20014;-88
2023/12/13 10:33:25;;;;;;;16.47;6.07;;;;;;;;;;4988657;28;20053;-87
2023/12/13 10:35:51;;;;;;;20.47;6.23;;;;;;;;;;4989592;28;20117;-90
2023/12/13 10:38:17;;;;;;;17.98;6.00;;;;;;;;;;4990265;28;20088;-87
2023/12/13 10:40:43;;;;;;;15.95;6.93;;;;;;;;;;4989797;28;20080;-87
2023/12/13 10:43:10;;;;;;;17.40;6.63;;;;;;;;;;4989609;28;20018;-88
2023/12/13 10:45:38;;;;;;;19.80;6.90;;;;;;;;;;4990429;28;20085;-88
2023/12/13 10:48:07;;;;;;;17.05;6.65;;;;;;;;;;4990745;28;20030;-88
2023/12/13 10:50:33;;;;;;;19.77;6.80;;;;;;;;;;4985812;28;20038;-88
2023/12/13 10:53:01;;;;;;;20.45;6.90;;;;;;;;;;4978671;28;20082;-88
2023/12/13 10:55:27;;;;;;;21.73;6.97;;;;;;;;;;4983970;28;20023;-86
2023/12/13 10:57:53;;;;;;;18.13;6.13;;;;;;;;;;4969110;28;20038;-87
2023/12/13 11:00:19;;;;;;;15.87;5.77;;;;;;;;;;4989424;28;20449;-91
2023/12/13 11:02:48;;;;;;;17.00;5.97;;;;;;;;;;4977177;28;20018;-91
2023/12/13 11:05:14;;;;;;;20.20;6.47;;;;;;;;;;4994302;28;20105;-91
2023/12/13 11:07:43;;;;;;;20.93;6.20;;;;;;;;;;4997996;28;20061;-91
2023/12/13 11:10:09;;;;;;;20.75;5.55;;;;;;;;;;4997010;28;20439;-90
2023/12/13 11:12:44;;;;;;;12.33;5.07;;;;;;;;;;4996093;28;20057;-90
2023/12/13 11:15:12;;;;;;;18.60;5.13;;;;;;;;;;4994313;28;20614;-89
2023/12/13 11:17:38;;;;;;;20.75;4.80;;;;;;;;;;4992784;28;20026;-88
2023/12/13 11:20:09;;;;;;;17.43;5.80;;;;;;;;;;4993704;28;20038;-88
2023/12/13 11:22:34;;;;;;;25.05;5.35;;;;;;;;;;4972894;28;20034;-88
2023/12/13 11:25:06;;;;;;;19.27;5.87;;;;;;;;;;4975843;28;20031;-88
2023/12/13 11:27:31;;;;;;;17.38;5.40;;;;;;;;;;4975279;28;20523;-88
2023/12/13 11:29:57;;;;;;;14.03;5.33;;;;;;;;;;4983606;28;20029;-88
2023/12/13 11:32:32;;;;;;;19.03;4.93;;;;;;;;;;4975760;28;20104;-88
2023/12/13 11:34:57;;;;;;;20.88;5.18;;;;;;;;;;4988684;28;20146;-89
2023/12/13 11:37:22;;;;;;;16.87;6.03;;;;;;;;;;4995589;28;20043;-89
2023/12/13 11:39:48;;;;;;;18.40;5.63;;;;;;;;;;4996065;28;20023;-90
2023/12/13 11:42:15;;;;;;;18.98;5.57;;;;;;;;;;4976631;28;20490;-90
2023/12/13 11:44:42;;;;;;;20.90;6.13;;;;;;;;;;4977669;28;20537;-90
2023/12/13 11:47:11;;;;;;;19.23;6.23;;;;;;;;;;4993711;28;20328;-90
2023/12/13 11:49:37;;;;;;;20.70;6.05;;;;;;;;;;4982152;28;20502;-89
2023/12/13 11:52:03;;;;;;;20.48;6.50;;;;;;;;;;4987457;28;20046;-90
2023/12/13 11:54:28;;;;;;;21.50;6.60;;;;;;;;;;4978478;28;20035;-90
2023/12/13 11:56:53;;;;;;;22.40;6.17;;;;;;;;;;4974991;28;20109;-90
2023/12/13 11:59:20;;;;;;;23.43;6.60;;;;;;;;;;4995729;28;20106;-90
2023/12/13 12:01:45;;;;;;;18.02;7.00;;;;;;;;;;4994031;28;20085;-90
2023/12/13 12:04:10;;;;;;;18.40;6.70;;;;;;;;;;4993906;28;20018;-91
2023/12/13 12:06:35;;;;;;;20.07;7.13;;;;;;;;;;4992925;28;20125;-90
2023/12/13 12:09:01;;;;;;;23.13;6.83;;;;;;;;;;4975203;28;20035;-90
2023/12/13 12:11:27;;;;;;;15.87;7.10;;;;;;;;;;4990867;28;20338;-90
2023/12/13 12:13:54;;;;;;;20.63;7.63;;;;;;;;;;4989877;28;20125;-90
2023/12/13 12:16:19;;;;;;;22.70;7.25;;;;;;;;;;4986628;28;20029;-90
2023/12/13 12:18:45;;;;;;;19.87;7.97;;;;;;;;;;4991908;28;20011;-91
2023/12/13 12:21:11;;;;;;;17.92;8.23;;;;;;;;;;4988935;28;20628;-90
2023/12/13 12:23:40;;;;;;;23.45;8.48;;;;;;;;;;4985340;28;20018;-91
2023/12/13 12:26:10;;;;;;;24.02;8.90;;;;;;;;;;4990615;28;20378;-90
2023/12/13 12:28:36;;;;;;;21.10;8.63;;;;;;;;;;4975766;28;20030;-91
2023/12/13 12:31:01;;;;;;;24.27;8.70;;;;;;;;;;4988172;28;20026;-91
2023/12/13 12:33:26;;;;;;;19.20;8.30;;;;;;;;;;4992643;28;20066;-90
2023/12/13 12:35:51;;;;;;;19.93;8.17;;;;;;;;;;4992172;28;20026;-91
2023/12/13 12:38:17;;;;;;;22.00;8.40;;;;;;;;;;4994210;28;20045;-93
2023/12/13 12:40:44;;;;;;;15.35;8.15;;;;;;;;;;4974217;28;20455;-91
2023/12/13 12:43:10;;;;;;;18.50;8.88;;;;;;;;;;4988127;28;21890;-92
2023/12/13 12:45:35;;;;;;;19.03;7.23;;;;;;;;;;4991187;28;20014;-88
2023/12/13 12:48:00;;;;;;;15.03;6.83;;;;;;;;;;4988213;28;20023;-87
2023/12/13 12:50:25;;;;;;;16.37;7.77;;;;;;;;;;4989458;28;20488;-91
2023/12/13 12:52:50;;;;;;;15.37;8.17;;;;;;;;;;4989259;28;20014;-90
2023/12/13 12:55:16;;;;;;;18.67;7.97;;;;;;;;;;4990587;28;20046;-90
2023/12/13 12:57:41;;;;;;;21.80;7.40;;;;;;;;;;4993834;28;20065;-89
2023/12/13 13:00:06;;;;;;;14.10;7.30;;;;;;;;;;4993800;28;20532;-89
2023/12/13 13:02:32;;;;;;;15.43;7.40;;;;;;;;;;4989589;28;20113;-90
2023/12/13 13:04:57;;;;;;;13.17;7.20;;;;;;;;;;4989097;28;20015;-90
2023/12/13 13:07:22;;;;;;;14.80;7.23;;;;;;;;;;4999514;28;20502;-91
2023/12/13 13:09:47;;;;;;;16.60;6.53;;;;;;;;;;4995522;28;20015;-91
2023/12/13 13:12:13;;;;;;;11.70;5.50;;;;;;;;;;4979822;28;20111;-89
2023/12/13 13:14:39;;;;;;;13.87;6.00;;;;;;;;;;4989174;28;20024;-89
2023/12/13 13:17:05;;;;;;;13.35;6.10;;;;;;;;;;4975052;28;20031;-89
2023/12/13 13:19:31;;;;;;;10.70;5.60;;;;;;;;;;4989587;28;20045;-90
2023/12/13 13:21:56;;;;;;;15.40;5.60;;;;;;;;;;4991137;28;20105;-89
2023/12/13 13:24:22;;;;;;;8.87;5.50;;;;;;;;;;4992246;28;20022;-90
2023/12/13 13:26:47;;;;;;;14.02;5.70;;;;;;;;;;4984542;28;20018;-89
2023/12/13 13:29:13;;;;;;;10.20;5.27;;;;;;;;;;5010369;28;20044;-89
2023/12/13 13:31:38;;;;;;;13.00;5.30;;;;;;;;;;4991092;28;20018;-89
2023/12/13 13:34:03;;;;;;;14.65;5.50;;;;;;;;;;4973439;28;20049;-90
2023/12/13 13:36:29;;;;;;;12.87;5.77;;;;;;;;;;4993011;28;20084;-92
2023/12/13 13:38:54;;;;;;;7.63;5.17;;;;;;;;;;4994640;28;20031;-91
2023/12/13 13:41:21;;;;;;;14.57;5.20;;;;;;;;;;4994715;28;20018;-90
2023/12/13 13:43:47;;;;;;;11.80;4.70;;;;;;;;;;4995584;28;20037;-92
2023/12/13 13:46:13;;;;;;;15.57;5.20;;;;;;;;;;4990617;28;20014;-88
2023/12/13 13:48:38;;;;;;;13.25;5.25;;;;;;;;;;4976148;28;20026;-95
2023/12/13 13:51:04;;;;;;;12.87;5.30;;;;;;;;;;4966806;28;20025;-90
2023/12/13 13:53:29;;;;;;;11.40;4.93;;;;;;;;;;4986030;28;20022;-90
2023/12/13 13:55:54;;;;;;;14.00;5.30;;;;;;;;;;4972184;28;20037;-89
2023/12/13 14:00:55;;;;;;;13.07;5.60;;;;;;;;;;5352256;22;20048;-91
2023/12/13 14:03:20;;;;;;;18.23;5.80;;;;;;;;;;5035516;28;20442;-92
2023/12/13 14:05:45;;;;;;;13.40;5.60;;;;;;;;;;5051650;28;20100;-90
2023/12/13 14:08:13;;;;;;;10.90;4.97;;;;;;;;;;5033545;28;20120;-91
2023/12/13 14:10:38;;;;;;;14.18;5.72;;;;;;;;;;5034771;28;20055;-90
2023/12/13 14:13:03;;;;;;;12.90;5.70;;;;;;;;;;5036907;28;20033;-92
2023/12/13 14:15:28;;;;;;;14.37;5.80;;;;;;;;;;5048514;28;20025;-91
2023/12/13 14:17:53;;;;;;;13.13;5.63;;;;;;;;;;5061665;28;20028;-93
2023/12/13 14:20:19;;;;;;;14.50;5.57;;;;;;;;;;5053320;28;20029;-92
2023/12/13 14:22:45;;;;;;;10.43;5.30;;;;;;;;;;5048509;28;20017;-90
2023/12/13 14:25:11;;;;;;;13.60;5.77;;;;;;;;;;5034382;28;20472;-91
2023/12/13 14:27:36;;;;;;;17.10;6.57;;;;;;;;;;5047304;28;20069;-89
2023/12/13 14:30:01;;;;;;;16.57;6.30;;;;;;;;;;5051919;28;20029;-88
2023/12/13 14:32:28;;;;;;;16.02;6.47;;;;;;;;;;5050643;28;20021;-90
2023/12/13 14:34:53;;;;;;;17.10;6.20;;;;;;;;;;5050360;28;20479;-92